createdAt,value
2018-05-03T00:00:09.695Z,88.76
2018-05-03T00:01:09.668Z,89.01
2018-05-03T00:02:09.645Z,89.58
2018-05-03T00:03:09.606Z,89.48
2018-05-03T00:04:09.586Z,88.29
2018-05-03T00:05:09.616Z,85.51
2018-05-03T00:06:09.530Z,84.94
2018-05-03T00:07:09.494Z,85.13
2018-05-03T00:08:09.466Z,86.76
2018-05-03T00:09:09.446Z,87.52
2018-05-03T00:10:09.423Z,88.19
2018-05-03T00:11:09.405Z,88.48
2018-05-03T00:12:09.366Z,88.95
2018-05-03T00:13:09.339Z,89.91
2018-05-03T00:14:09.314Z,90.30
2018-05-03T00:15:09.281Z,90.10
2018-05-03T00:16:09.282Z,90.01
2018-05-03T00:17:09.234Z,90.63
2018-05-03T00:18:09.205Z,91.02
2018-05-03T00:19:09.184Z,90.87
2018-05-03T00:20:09.144Z,90.82
2018-05-03T00:21:09.118Z,90.73
2018-05-03T00:22:09.094Z,90.44
2018-05-03T00:23:09.068Z,90.16
2018-05-03T00:24:09.042Z,90.34
2018-05-03T00:25:09.029Z,90.44
2018-05-03T00:26:08.981Z,89.67
2018-05-03T00:27:08.957Z,89.87
2018-05-03T00:28:08.931Z,89.01
2018-05-03T00:29:08.904Z,89.58
2018-05-03T00:30:08.874Z,89.29
2018-05-03T00:31:08.849Z,89.10
2018-05-03T00:32:08.829Z,89.10
2018-05-03T00:33:08.795Z,88.43
2018-05-03T00:34:08.775Z,88.72
2018-05-03T00:35:08.735Z,88.15
2018-05-03T00:36:08.715Z,87.66
2018-05-03T00:37:08.691Z,87.86
2018-05-03T00:38:08.658Z,86.52
2018-05-03T00:39:08.627Z,86.90
2018-05-03T00:40:08.604Z,86.23
2018-05-03T00:41:08.572Z,85.66
2018-05-03T00:42:08.551Z,84.99
2018-05-03T00:43:08.526Z,84.52
2018-05-03T00:44:08.499Z,84.99
2018-05-03T00:45:08.474Z,84.13
2018-05-03T00:46:08.444Z,83.94
2018-05-03T00:47:08.406Z,84.13
2018-05-03T00:48:08.382Z,83.84
2018-05-03T00:49:08.352Z,82.75
2018-05-03T00:50:08.341Z,82.22
2018-05-03T00:51:08.308Z,83.08
2018-05-03T00:52:08.274Z,82.31
2018-05-03T00:53:08.245Z,82.12
2018-05-03T00:54:08.228Z,82.22
2018-05-03T00:55:08.203Z,81.79
2018-05-03T00:56:08.167Z,81.60
2018-05-03T00:57:08.137Z,80.84
2018-05-03T00:58:08.111Z,80.46
2018-05-03T00:59:08.079Z,79.88
2018-05-03T01:00:08.046Z,79.50
2018-05-03T01:01:08.029Z,79.22
2018-05-03T01:02:08.002Z,78.36
2018-05-03T01:03:07.970Z,79.31
2018-05-03T01:04:07.944Z,78.74
2018-05-03T01:05:07.920Z,79.12
2018-05-03T01:06:07.883Z,79.22
2018-05-03T01:07:07.855Z,78.26
2018-05-03T01:08:07.836Z,78.26
2018-05-03T01:09:07.805Z,78.26
2018-05-03T01:10:07.775Z,77.87
2018-05-03T01:11:07.745Z,77.21
2018-05-03T01:12:07.715Z,76.92
2018-05-03T01:13:07.692Z,76.06
2018-05-03T01:14:07.665Z,75.78
2018-05-03T01:15:07.652Z,75.10
2018-05-03T01:16:07.612Z,75.20
2018-05-03T01:17:07.582Z,75.59
2018-05-03T01:18:07.555Z,75.39
2018-05-03T01:19:07.519Z,74.82
2018-05-03T01:20:07.496Z,74.91
2018-05-03T01:21:07.477Z,74.53
2018-05-03T01:22:07.447Z,74.63
2018-05-03T01:23:07.481Z,73.58
2018-05-03T01:24:07.384Z,73.10
2018-05-03T01:25:07.358Z,73.29
2018-05-03T01:26:07.347Z,73.00
2018-05-03T01:27:07.305Z,72.33
2018-05-03T01:28:07.280Z,73.00
2018-05-03T01:29:07.268Z,72.81
2018-05-03T01:30:07.224Z,73.00
2018-05-03T01:31:07.189Z,72.33
2018-05-03T01:32:07.179Z,72.05
2018-05-03T01:33:07.137Z,73.10
2018-05-03T01:34:07.116Z,71.86
2018-05-03T01:35:07.100Z,72.05
2018-05-03T01:36:07.063Z,71.72
2018-05-03T01:37:07.029Z,71.34
2018-05-03T01:38:07.009Z,71.38
2018-05-03T01:39:06.967Z,70.71
2018-05-03T01:40:06.947Z,71.00
2018-05-03T01:41:06.929Z,71.76
2018-05-03T01:42:06.886Z,71.00
2018-05-03T01:43:06.872Z,70.90
2018-05-03T01:44:06.835Z,71.06
2018-05-03T01:45:06.816Z,71.09
2018-05-03T01:46:06.777Z,70.81
2018-05-03T01:47:06.754Z,70.71
2018-05-03T01:48:06.729Z,70.61
2018-05-03T01:49:06.697Z,69.82
2018-05-03T01:50:06.668Z,69.43
2018-05-03T01:51:06.639Z,68.86
2018-05-03T01:52:06.612Z,68.67
2018-05-03T01:53:06.587Z,69.05
2018-05-03T01:54:06.557Z,68.57
2018-05-03T01:55:06.541Z,68.67
2018-05-03T01:56:06.494Z,68.67
2018-05-03T01:57:06.469Z,68.32
2018-05-03T01:58:06.449Z,68.19
2018-05-03T01:59:06.420Z,68.10
2018-05-03T02:00:06.394Z,68.67
2018-05-03T02:01:06.364Z,68.76
2018-05-03T02:02:06.333Z,67.52
2018-05-03T02:03:06.302Z,67.43
2018-05-03T02:04:06.274Z,67.71
2018-05-03T02:05:06.251Z,67.62
2018-05-03T02:06:06.238Z,67.71
2018-05-03T02:07:06.194Z,66.85
2018-05-03T02:08:06.166Z,66.56
2018-05-03T02:09:06.142Z,65.61
2018-05-03T02:10:06.114Z,66.09
2018-05-03T02:11:06.085Z,66.28
2018-05-03T02:12:06.063Z,66.56
2018-05-03T02:13:06.032Z,66.66
2018-05-03T02:14:06.001Z,66.66
2018-05-03T02:15:05.973Z,66.85
2018-05-03T02:16:05.945Z,66.66
2018-05-03T02:17:05.910Z,66.76
2018-05-03T02:18:05.887Z,66.19
2018-05-03T02:19:05.856Z,65.80
2018-05-03T02:20:05.830Z,65.14
2018-05-03T02:21:05.806Z,65.23
2018-05-03T02:22:05.771Z,65.14
2018-05-03T02:23:05.741Z,64.65
2018-05-03T02:24:05.714Z,64.37
2018-05-03T02:25:05.690Z,63.70
2018-05-03T02:26:05.666Z,63.99
2018-05-03T02:27:05.635Z,63.89
2018-05-03T02:28:05.612Z,63.96
2018-05-03T02:29:05.580Z,64.05
2018-05-03T02:30:05.557Z,63.76
2018-05-03T02:31:05.530Z,64.09
2018-05-03T02:32:05.496Z,63.39
2018-05-03T02:33:05.489Z,62.91
2018-05-03T02:34:05.441Z,63.67
2018-05-03T02:35:05.412Z,63.57
2018-05-03T02:36:05.387Z,63.48
2018-05-03T02:37:05.348Z,63.39
2018-05-03T02:38:05.334Z,63.29
2018-05-03T02:39:05.298Z,63.39
2018-05-03T02:40:05.277Z,63.57
2018-05-03T02:41:05.248Z,63.48
2018-05-03T02:42:05.218Z,63.48
2018-05-03T02:43:05.187Z,63.86
2018-05-03T02:44:05.154Z,63.39
2018-05-03T02:45:05.141Z,63.39
2018-05-03T02:46:05.100Z,63.29
2018-05-03T02:47:05.072Z,63.20
2018-05-03T02:48:05.043Z,63.10
2018-05-03T02:49:05.011Z,63.48
2018-05-03T02:50:04.997Z,62.81
2018-05-03T02:51:04.962Z,62.34
2018-05-03T02:52:04.931Z,64.34
2018-05-03T02:53:04.909Z,64.34
2018-05-03T02:54:04.875Z,64.34
2018-05-03T02:55:04.846Z,64.43
2018-05-03T02:56:04.814Z,64.25
2018-05-03T02:57:04.787Z,63.76
2018-05-03T02:58:04.767Z,63.57
2018-05-03T02:59:04.735Z,63.67
2018-05-03T03:00:04.710Z,63.29
2018-05-03T03:01:04.669Z,63.39
2018-05-03T03:02:04.648Z,63.96
2018-05-03T03:03:04.620Z,63.86
2018-05-03T03:04:04.590Z,64.21
2018-05-03T03:05:04.566Z,65.58
2018-05-03T03:06:04.531Z,65.20
2018-05-03T03:07:04.513Z,64.91
2018-05-03T03:08:04.475Z,65.48
2018-05-03T03:09:04.447Z,65.07
2018-05-03T03:10:04.422Z,65.64
2018-05-03T03:11:04.397Z,65.55
2018-05-03T03:12:04.373Z,65.64
2018-05-03T03:13:04.337Z,65.83
2018-05-03T03:14:04.300Z,65.64
2018-05-03T03:15:04.274Z,65.39
2018-05-03T03:16:04.257Z,66.41
2018-05-03T03:17:04.222Z,66.22
2018-05-03T03:18:04.187Z,66.22
2018-05-03T03:19:04.159Z,66.63
2018-05-03T03:20:04.134Z,67.46
2018-05-03T03:21:04.102Z,68.51
2018-05-03T03:22:04.134Z,68.03
2018-05-03T03:23:04.051Z,68.22
2018-05-03T03:24:04.025Z,68.32
2018-05-03T03:25:03.994Z,68.32
2018-05-03T03:26:03.963Z,69.17
2018-05-03T03:27:03.933Z,68.60
2018-05-03T03:28:03.916Z,68.70
2018-05-03T03:29:03.872Z,68.98
2018-05-03T03:30:03.866Z,68.88
2018-05-03T03:31:03.844Z,69.56
2018-05-03T03:32:03.792Z,69.84
2018-05-03T03:33:03.765Z,69.74
2018-05-03T03:34:03.737Z,70.70
2018-05-03T03:35:03.711Z,70.42
2018-05-03T03:36:03.680Z,70.51
2018-05-03T03:37:03.651Z,69.93
2018-05-03T03:38:03.617Z,70.42
2018-05-03T03:39:03.592Z,70.79
2018-05-03T03:40:03.564Z,70.79
2018-05-03T03:41:03.541Z,71.08
2018-05-03T03:42:03.512Z,70.42
2018-05-03T03:43:03.479Z,70.32
2018-05-03T03:44:03.451Z,69.71
2018-05-03T03:45:03.424Z,69.33
2018-05-03T03:46:03.386Z,69.52
2018-05-03T03:47:03.366Z,68.85
2018-05-03T03:48:03.335Z,68.38
2018-05-03T03:49:03.330Z,68.57
2018-05-03T03:50:03.278Z,68.28
2018-05-03T03:51:03.251Z,67.90
2018-05-03T03:52:03.251Z,67.14
2018-05-03T03:53:03.193Z,67.71
2018-05-03T03:54:03.170Z,67.23
2018-05-03T03:55:03.142Z,67.33
2018-05-03T03:56:03.107Z,67.52
2018-05-03T03:57:03.102Z,66.38
2018-05-03T03:58:03.044Z,66.09
2018-05-03T03:59:03.079Z,65.33
2018-05-03T04:00:02.991Z,65.61
2018-05-03T04:01:02.985Z,65.13
2018-05-03T04:02:02.934Z,65.13
2018-05-03T04:03:02.913Z,65.23
2018-05-03T04:04:02.905Z,63.89
2018-05-03T04:05:02.852Z,64.37
2018-05-03T04:06:02.819Z,63.23
2018-05-03T04:07:02.812Z,63.32
2018-05-03T04:08:02.761Z,63.13
2018-05-03T04:09:02.740Z,63.23
2018-05-03T04:10:02.704Z,62.18
2018-05-03T04:11:02.671Z,62.18
2018-05-03T04:12:02.643Z,62.27
2018-05-03T04:13:02.611Z,62.65
2018-05-03T04:14:02.608Z,61.41
2018-05-03T04:15:02.560Z,61.04
2018-05-03T04:16:02.569Z,61.10
2018-05-03T04:17:02.505Z,60.94
2018-05-03T04:18:02.473Z,60.75
2018-05-03T04:19:02.451Z,61.80
2018-05-03T04:20:02.470Z,61.32
2018-05-03T04:21:02.393Z,60.55
2018-05-03T04:22:02.353Z,60.14
2018-05-03T04:23:02.352Z,59.95
2018-05-03T04:24:02.299Z,59.28
2018-05-03T04:25:02.267Z,59.48
2018-05-03T04:26:02.263Z,59.79
2018-05-03T04:27:02.217Z,59.86
2018-05-03T04:28:02.185Z,59.38
2018-05-03T04:29:02.189Z,59.67
2018-05-03T04:30:02.120Z,59.86
2018-05-03T04:31:02.116Z,60.05
2018-05-03T04:32:02.075Z,59.38
2018-05-03T04:33:02.102Z,58.91
2018-05-03T04:34:02.021Z,59.38
2018-05-03T04:35:01.981Z,59.00
2018-05-03T04:36:01.960Z,58.43
2018-05-03T04:37:01.923Z,57.57
2018-05-03T04:38:01.898Z,58.24
2018-05-03T04:39:01.875Z,58.43
2018-05-03T04:40:01.841Z,58.62
2018-05-03T04:41:01.819Z,59.09
2018-05-03T04:42:01.776Z,59.48
2018-05-03T04:43:01.746Z,58.81
2018-05-03T04:44:01.722Z,58.91
2018-05-03T04:45:01.688Z,58.55
2018-05-03T04:46:01.709Z,59.38
2018-05-03T04:47:01.707Z,58.52
2018-05-03T04:48:01.600Z,58.55
2018-05-03T04:49:01.574Z,58.72
2018-05-03T04:50:01.540Z,58.72
2018-05-03T04:51:01.511Z,59.48
2018-05-03T04:52:01.541Z,59.57
2018-05-03T04:53:01.461Z,59.67
2018-05-03T04:54:01.427Z,59.48
2018-05-03T04:55:01.397Z,58.94
2018-05-03T04:56:01.368Z,58.94
2018-05-03T04:57:01.337Z,59.76
2018-05-03T04:58:01.315Z,59.70
2018-05-03T04:59:01.282Z,59.89
2018-05-03T05:00:01.256Z,60.08
2018-05-03T05:01:01.227Z,60.55
2018-05-03T05:02:01.198Z,60.84
2018-05-03T05:03:01.172Z,60.75
2018-05-03T05:04:01.138Z,61.13
2018-05-03T05:05:01.108Z,61.51
2018-05-03T05:06:01.104Z,61.89
2018-05-03T05:07:01.049Z,61.99
2018-05-03T05:08:01.021Z,62.46
2018-05-03T05:09:00.990Z,62.37
2018-05-03T05:10:00.978Z,62.37
2018-05-03T05:11:00.940Z,62.56
2018-05-03T05:12:00.907Z,63.32
2018-05-03T05:13:00.887Z,62.75
2018-05-03T05:14:00.907Z,62.65
2018-05-03T05:15:00.820Z,63.60
2018-05-03T05:16:00.794Z,63.89
2018-05-03T05:17:00.765Z,63.80
2018-05-03T05:18:00.745Z,63.51
2018-05-03T05:19:00.703Z,63.89
2018-05-03T05:20:00.676Z,62.56
2018-05-03T05:21:00.662Z,62.46
2018-05-03T05:22:00.617Z,63.42
2018-05-03T05:23:00.596Z,62.56
2018-05-03T05:24:00.566Z,61.99
2018-05-03T05:25:00.538Z,63.32
2018-05-03T05:26:00.504Z,62.46
2018-05-03T05:27:00.476Z,63.70
2018-05-03T05:28:00.514Z,62.37
2018-05-03T05:29:00.430Z,63.13
2018-05-03T05:30:00.398Z,63.70
2018-05-03T05:31:00.361Z,63.70
2018-05-03T05:32:00.339Z,63.51
2018-05-03T05:33:00.311Z,64.18
2018-05-03T05:34:00.272Z,63.32
2018-05-03T05:35:00.254Z,64.18
2018-05-03T05:36:00.218Z,64.09
2018-05-03T05:37:00.185Z,64.09
2018-05-03T05:38:00.179Z,65.33
2018-05-03T05:39:00.196Z,65.33
2018-05-03T05:40:00.109Z,64.94
2018-05-03T05:41:00.089Z,65.80
2018-05-03T05:42:00.049Z,66.18
2018-05-03T05:43:00.019Z,67.52
2018-05-03T05:43:59.997Z,66.56
2018-05-03T05:44:59.964Z,66.47
2018-05-03T05:45:59.995Z,67.80
2018-05-03T05:46:59.901Z,66.38
2018-05-03T05:47:59.874Z,67.52
2018-05-03T05:48:59.850Z,67.33
2018-05-03T05:49:59.853Z,67.61
2018-05-03T05:50:59.880Z,68.60
2018-05-03T05:51:59.761Z,69.27
2018-05-03T05:52:59.751Z,68.47
2018-05-03T05:53:59.706Z,68.09
2018-05-03T05:54:59.681Z,68.70
2018-05-03T05:55:59.666Z,68.98
2018-05-03T05:56:59.623Z,69.74
2018-05-03T05:57:59.595Z,69.56
2018-05-03T05:58:59.571Z,69.17
2018-05-03T05:59:59.536Z,69.08
2018-05-03T06:00:59.501Z,69.74
2018-05-03T06:01:59.481Z,70.70
2018-05-03T06:02:59.449Z,68.88
2018-05-03T06:03:59.420Z,70.70
2018-05-03T06:04:59.394Z,70.98
2018-05-03T06:05:59.368Z,70.89
2018-05-03T06:06:59.342Z,71.66
2018-05-03T06:07:59.309Z,71.56
2018-05-03T06:08:59.279Z,72.23
2018-05-03T06:09:59.255Z,72.13
2018-05-03T06:10:59.228Z,71.31
2018-05-03T06:11:59.194Z,72.07
2018-05-03T06:12:59.185Z,74.74
2018-05-03T06:13:59.147Z,74.74
2018-05-03T06:14:59.127Z,75.32
2018-05-03T06:15:59.085Z,76.18
2018-05-03T06:16:59.058Z,76.08
2018-05-03T06:17:59.024Z,77.13
2018-05-03T06:18:59.013Z,76.27
2018-05-03T06:19:58.972Z,76.27
2018-05-03T06:20:58.996Z,76.75
2018-05-03T06:21:58.922Z,77.03
2018-05-03T06:22:58.884Z,76.65
2018-05-03T06:23:58.856Z,75.32
2018-05-03T06:24:58.829Z,76.94
2018-05-03T06:25:58.898Z,77.03
2018-05-03T06:26:58.792Z,77.51
2018-05-03T06:27:58.749Z,78.37
2018-05-03T06:28:58.739Z,78.37
2018-05-03T06:29:58.699Z,79.23
2018-05-03T06:30:58.674Z,79.80
2018-05-03T06:31:58.645Z,79.61
2018-05-03T06:32:58.616Z,79.61
2018-05-03T06:33:58.585Z,79.23
2018-05-03T06:34:58.551Z,78.99
2018-05-03T06:35:58.525Z,79.23
2018-05-03T06:36:58.498Z,79.80
2018-05-03T06:37:58.473Z,80.09
2018-05-03T06:38:58.547Z,79.61
2018-05-03T06:39:58.417Z,79.52
2018-05-03T06:40:58.389Z,82.00
2018-05-03T06:41:58.362Z,81.81
2018-05-03T06:42:58.335Z,81.52
2018-05-03T06:43:58.307Z,83.14
2018-05-03T06:44:58.309Z,82.76
2018-05-03T06:45:58.251Z,83.09
2018-05-03T06:46:58.225Z,82.95
2018-05-03T06:47:58.200Z,82.81
2018-05-03T06:48:58.166Z,82.86
2018-05-03T06:49:58.143Z,83.09
2018-05-03T06:50:58.135Z,84.62
2018-05-03T06:51:58.090Z,84.72
2018-05-03T06:52:58.232Z,86.05
2018-05-03T06:53:58.077Z,85.96
2018-05-03T06:54:57.997Z,84.77
2018-05-03T06:55:57.973Z,85.96
2018-05-03T06:56:57.943Z,84.81
2018-05-03T06:57:57.919Z,85.48
2018-05-03T06:58:57.889Z,84.52
2018-05-03T06:59:57.885Z,85.48
2018-05-03T07:00:57.829Z,86.72
2018-05-03T07:01:57.818Z,86.34
2018-05-03T07:02:57.778Z,86.67
2018-05-03T07:03:57.761Z,87.10
2018-05-03T07:04:57.731Z,86.82
2018-05-03T07:05:57.718Z,87.39
2018-05-03T07:06:57.666Z,88.44
2018-05-03T07:07:57.704Z,87.96
2018-05-03T07:08:57.611Z,89.59
2018-05-03T07:09:57.599Z,89.59
2018-05-03T07:10:57.560Z,88.82
2018-05-03T07:11:57.532Z,88.44
2018-05-03T07:12:57.515Z,89.01
2018-05-03T07:13:57.471Z,89.20
2018-05-03T07:14:57.449Z,89.97
2018-05-03T07:15:57.422Z,88.82
2018-05-03T07:16:57.397Z,88.73
2018-05-03T07:17:57.369Z,88.34
2018-05-03T07:18:57.339Z,86.24
2018-05-03T07:19:57.311Z,87.77
2018-05-03T07:20:57.282Z,90.06
2018-05-03T07:21:57.265Z,88.59
2018-05-03T07:22:57.238Z,89.20
2018-05-03T07:23:57.205Z,89.59
2018-05-03T07:24:57.179Z,90.45
2018-05-03T07:25:57.145Z,90.35
2018-05-03T07:26:57.121Z,89.78
2018-05-03T07:27:57.092Z,89.49
2018-05-03T07:28:57.061Z,90.06
2018-05-03T07:29:57.041Z,89.39
2018-05-03T07:30:57.015Z,89.30
2018-05-03T07:31:56.981Z,90.16
2018-05-03T07:32:56.951Z,89.78
2018-05-03T07:33:56.932Z,89.59
2018-05-03T07:34:56.904Z,89.59
2018-05-03T07:35:56.876Z,89.59
2018-05-03T07:36:56.847Z,90.68
2018-05-03T07:37:56.815Z,91.02
2018-05-03T07:38:56.788Z,90.92
2018-05-03T07:39:56.759Z,91.40
2018-05-03T07:40:56.738Z,91.40
2018-05-03T07:41:56.720Z,91.35
2018-05-03T07:42:56.679Z,91.83
2018-05-03T07:43:56.654Z,90.73
2018-05-03T07:44:56.703Z,90.78
2018-05-03T07:45:56.668Z,91.02
2018-05-03T07:46:56.582Z,91.54
2018-05-03T07:47:56.600Z,91.50
2018-05-03T07:48:56.521Z,91.54
2018-05-03T07:49:56.484Z,90.97
2018-05-03T07:50:56.464Z,91.06
2018-05-03T07:51:56.432Z,91.35
2018-05-03T07:52:56.405Z,91.16
2018-05-03T07:53:56.381Z,92.30
2018-05-03T07:54:56.359Z,91.54
2018-05-03T07:55:56.326Z,91.54
2018-05-03T07:56:56.307Z,91.54
2018-05-03T07:57:56.285Z,91.54
2018-05-03T07:58:56.241Z,92.02
2018-05-03T07:59:56.215Z,91.06
2018-05-03T08:00:56.192Z,91.35
2018-05-03T08:01:56.178Z,91.45
2018-05-03T08:02:56.135Z,91.25
2018-05-03T08:03:56.107Z,92.11
2018-05-03T08:04:56.076Z,91.69
2018-05-03T08:05:56.057Z,91.45
2018-05-03T08:06:56.028Z,91.54
2018-05-03T08:07:56.004Z,91.25
2018-05-03T08:08:55.972Z,91.06
2018-05-03T08:09:55.940Z,91.64
2018-05-03T08:10:55.952Z,91.02
2018-05-03T08:11:55.888Z,90.53
2018-05-03T08:12:55.855Z,91.02
2018-05-03T08:13:55.834Z,91.49
2018-05-03T08:14:55.806Z,90.44
2018-05-03T08:15:55.780Z,91.30
2018-05-03T08:16:55.757Z,91.68
2018-05-03T08:17:55.721Z,91.39
2018-05-03T08:18:55.695Z,91.39
2018-05-03T08:19:55.669Z,90.82
2018-05-03T08:20:55.654Z,92.25
2018-05-03T08:21:55.609Z,91.78
2018-05-03T08:22:55.588Z,92.07
2018-05-03T08:23:55.563Z,91.97
2018-05-03T08:24:55.531Z,92.25
2018-05-03T08:25:55.517Z,91.20
2018-05-03T08:26:55.486Z,91.78
2018-05-03T08:27:55.466Z,91.97
2018-05-03T08:28:55.430Z,91.16
2018-05-03T08:29:55.398Z,91.44
2018-05-03T08:30:55.369Z,91.92
2018-05-03T08:31:55.380Z,89.91
2018-05-03T08:32:55.313Z,89.15
2018-05-03T08:33:55.302Z,88.48
2018-05-03T08:34:55.316Z,87.90
2018-05-03T08:35:55.239Z,86.37
2018-05-03T08:36:55.212Z,84.75
2018-05-03T08:37:55.191Z,83.89
2018-05-03T08:38:55.162Z,83.60
2018-05-03T08:39:55.134Z,82.54
2018-05-03T08:40:55.114Z,80.54
2018-05-03T08:41:55.074Z,77.95
2018-05-03T08:42:55.048Z,78.05
2018-05-03T08:43:55.023Z,77.00
2018-05-03T08:44:54.992Z,77.67
2018-05-03T08:45:54.974Z,79.58
2018-05-03T08:46:54.949Z,77.99
2018-05-03T08:47:54.920Z,75.60
2018-05-03T08:48:54.893Z,74.74
2018-05-03T08:49:54.858Z,70.87
2018-05-03T08:50:54.840Z,67.66
2018-05-03T08:51:54.822Z,64.31
2018-05-03T08:52:54.804Z,61.63
2018-05-03T08:53:54.759Z,60.58
2018-05-03T08:54:54.731Z,59.40
2018-05-03T08:55:54.711Z,59.33
2018-05-03T08:56:54.675Z,58.47
2018-05-03T08:57:54.656Z,57.68
2018-05-03T08:58:54.624Z,56.91
2018-05-03T08:59:54.596Z,56.82
2018-05-03T09:00:54.575Z,57.29
2018-05-03T09:01:54.600Z,56.17
2018-05-03T09:02:54.513Z,55.96
2018-05-03T09:03:54.486Z,56.62
2018-05-03T09:04:54.462Z,57.99
2018-05-03T09:05:54.438Z,59.33
2018-05-03T09:06:54.411Z,59.91
2018-05-03T09:07:54.415Z,56.84
2018-05-03T09:08:54.353Z,56.94
2018-05-03T09:09:54.341Z,56.08
2018-05-03T09:10:54.314Z,54.74
2018-05-03T09:11:54.280Z,54.74
2018-05-03T09:12:54.261Z,55.02
2018-05-03T09:13:54.227Z,54.36
2018-05-03T09:14:54.235Z,54.83
2018-05-03T09:15:54.176Z,56.08
2018-05-03T09:16:54.160Z,56.27
2018-05-03T09:17:54.126Z,55.51
2018-05-03T09:18:54.098Z,56.08
2018-05-03T09:19:54.070Z,56.08
2018-05-03T09:20:54.049Z,55.41
2018-05-03T09:21:54.019Z,54.45
2018-05-03T09:22:53.986Z,55.69
2018-05-03T09:23:53.964Z,55.60
2018-05-03T09:24:53.937Z,56.17
2018-05-03T09:25:53.906Z,56.84
2018-05-03T09:26:53.892Z,56.84
2018-05-03T09:27:53.857Z,57.35
2018-05-03T09:28:53.826Z,56.97
2018-05-03T09:29:53.810Z,58.79
2018-05-03T09:30:53.775Z,57.35
2018-05-03T09:31:53.759Z,56.20
2018-05-03T09:32:53.742Z,56.30
2018-05-03T09:33:53.703Z,56.52
2018-05-03T09:34:53.673Z,56.52
2018-05-03T09:35:53.673Z,56.71
2018-05-03T09:36:53.616Z,56.32
2018-05-03T09:37:53.602Z,56.23
2018-05-03T09:38:53.574Z,54.41
2018-05-03T09:39:53.544Z,55.18
2018-05-03T09:40:53.515Z,54.50
2018-05-03T09:41:53.509Z,53.26
2018-05-03T09:42:53.504Z,53.16
2018-05-03T09:43:53.440Z,53.64
2018-05-03T09:44:53.453Z,53.93
2018-05-03T09:45:53.415Z,53.45
2018-05-03T09:46:53.361Z,53.26
2018-05-03T09:47:53.344Z,51.82
2018-05-03T09:48:53.310Z,51.92
2018-05-03T09:49:53.302Z,51.15
2018-05-03T09:50:53.273Z,51.73
2018-05-03T09:51:53.231Z,51.92
2018-05-03T09:52:53.209Z,52.11
2018-05-03T09:53:53.174Z,53.07
2018-05-03T09:54:53.151Z,52.87
2018-05-03T09:55:53.129Z,53.07
2018-05-03T09:56:53.114Z,52.81
2018-05-03T09:57:53.089Z,52.91
2018-05-03T09:58:53.053Z,53.09
2018-05-03T09:59:53.024Z,53.19
2018-05-03T10:00:52.994Z,53.09
2018-05-03T10:01:52.974Z,52.91
2018-05-03T10:02:52.956Z,52.07
2018-05-03T10:03:52.921Z,51.56
2018-05-03T10:04:52.904Z,52.42
2018-05-03T10:05:52.869Z,53.00
2018-05-03T10:06:52.842Z,53.09
2018-05-03T10:07:52.821Z,53.09
2018-05-03T10:08:52.790Z,54.15
2018-05-03T10:09:52.780Z,53.58
2018-05-03T10:10:52.749Z,53.41
2018-05-03T10:11:52.722Z,52.83
2018-05-03T10:12:52.689Z,52.83
2018-05-03T10:13:52.671Z,51.71
2018-05-03T10:14:52.641Z,51.97
2018-05-03T10:15:52.619Z,51.49
2018-05-03T10:16:52.635Z,51.40
2018-05-03T10:17:52.584Z,51.51
2018-05-03T10:18:52.542Z,51.90
2018-05-03T10:19:52.512Z,52.55
2018-05-03T10:20:52.499Z,52.07
2018-05-03T10:21:52.476Z,52.91
2018-05-03T10:22:52.444Z,52.74
2018-05-03T10:23:52.431Z,51.87
2018-05-03T10:24:52.412Z,51.75
2018-05-03T10:25:52.368Z,51.75
2018-05-03T10:26:52.347Z,50.70
2018-05-03T10:27:52.326Z,50.60
2018-05-03T10:28:52.295Z,51.08
2018-05-03T10:29:52.286Z,51.95
2018-05-03T10:30:52.243Z,51.68
2018-05-03T10:31:52.216Z,51.40
2018-05-03T10:32:52.191Z,50.15
2018-05-03T10:33:52.167Z,50.63
2018-05-03T10:34:52.146Z,51.78
2018-05-03T10:35:52.207Z,52.26
2018-05-03T10:36:52.120Z,51.97
2018-05-03T10:37:52.073Z,51.59
2018-05-03T10:38:52.034Z,52.16
2018-05-03T10:39:52.012Z,51.78
2018-05-03T10:40:51.987Z,51.87
2018-05-03T10:41:51.975Z,52.62
2018-05-03T10:42:51.980Z,52.64
2018-05-03T10:43:51.921Z,53.15
2018-05-03T10:44:51.890Z,50.56
2018-05-03T10:45:51.866Z,49.41
2018-05-03T10:46:51.843Z,47.87
2018-05-03T10:47:51.821Z,47.22
2018-05-03T10:48:51.871Z,46.91
2018-05-03T10:49:51.773Z,46.53
2018-05-03T10:50:51.736Z,47.01
2018-05-03T10:51:51.712Z,46.74
2018-05-03T10:52:51.697Z,45.98
2018-05-03T10:53:51.668Z,46.48
2018-05-03T10:54:51.645Z,46.09
2018-05-03T10:55:51.620Z,45.81
2018-05-03T10:56:51.598Z,46.67
2018-05-03T10:57:51.572Z,46.28
2018-05-03T10:58:51.558Z,46.38
2018-05-03T10:59:51.523Z,46.67
2018-05-03T11:00:51.496Z,48.11
2018-05-03T11:01:51.518Z,47.82
2018-05-03T11:02:51.443Z,48.21
2018-05-03T11:03:51.422Z,49.10
2018-05-03T11:04:51.450Z,47.85
2018-05-03T11:05:51.377Z,46.21
2018-05-03T11:06:51.359Z,45.92
2018-05-03T11:07:51.338Z,46.48
2018-05-03T11:08:51.305Z,46.86
2018-05-03T11:09:51.285Z,47.44
2018-05-03T11:10:51.251Z,46.77
2018-05-03T11:11:51.231Z,46.17
2018-05-03T11:12:51.266Z,46.81
2018-05-03T11:13:51.325Z,45.95
2018-05-03T11:14:51.171Z,46.53
2018-05-03T11:15:51.133Z,45.93
2018-05-03T11:16:51.115Z,46.89
2018-05-03T11:17:51.094Z,46.79
2018-05-03T11:18:51.074Z,46.50
2018-05-03T11:19:51.045Z,47.08
2018-05-03T11:20:51.032Z,47.10
2018-05-03T11:21:50.994Z,46.24
2018-05-03T11:22:50.966Z,45.57
2018-05-03T11:23:50.939Z,44.63
2018-05-03T11:24:50.917Z,43.60
2018-05-03T11:25:50.970Z,43.48
2018-05-03T11:26:50.874Z,43.21
2018-05-03T11:27:50.847Z,44.00
2018-05-03T11:28:50.823Z,43.74
2018-05-03T11:29:50.827Z,43.37
2018-05-03T11:30:50.776Z,43.01
2018-05-03T11:31:50.755Z,42.36
2018-05-03T11:32:50.748Z,41.68
2018-05-03T11:33:50.699Z,42.07
2018-05-03T11:34:50.675Z,42.76
2018-05-03T11:35:50.668Z,41.61
2018-05-03T11:36:50.805Z,41.66
2018-05-03T11:37:50.609Z,42.99
2018-05-03T11:38:50.590Z,42.91
2018-05-03T11:39:50.566Z,42.36
2018-05-03T11:40:50.546Z,41.63
2018-05-03T11:41:50.532Z,39.89
2018-05-03T11:42:50.493Z,39.95
2018-05-03T11:43:50.500Z,41.53
2018-05-03T11:44:50.452Z,42.56
2018-05-03T11:45:50.437Z,43.71
2018-05-03T11:46:50.412Z,44.96
2018-05-03T11:47:50.386Z,44.55
2018-05-03T11:48:50.451Z,42.74
2018-05-03T11:49:50.400Z,42.55
2018-05-03T11:50:50.324Z,41.59
2018-05-03T11:51:50.307Z,41.05
2018-05-03T11:52:50.278Z,40.63
2018-05-03T11:53:50.256Z,40.53
2018-05-03T11:54:50.253Z,41.13
2018-05-03T11:55:50.212Z,40.78
2018-05-03T11:56:50.190Z,40.95
2018-05-03T11:57:50.197Z,42.59
2018-05-03T11:58:50.152Z,42.84
2018-05-03T11:59:50.143Z,43.24
2018-05-03T12:00:50.110Z,43.40
2018-05-03T12:01:50.084Z,44.35
2018-05-03T12:02:50.062Z,44.17
2018-05-03T12:03:50.057Z,42.97
2018-05-03T12:04:50.028Z,41.94
2018-05-03T12:05:50.007Z,41.44
2018-05-03T12:06:49.982Z,42.38
2018-05-03T12:07:49.954Z,41.72
2018-05-03T12:08:49.938Z,42.09
2018-05-03T12:09:49.917Z,42.93
2018-05-03T12:10:49.898Z,42.74
2018-05-03T12:11:49.912Z,43.40
2018-05-03T12:12:49.862Z,44.17
2018-05-03T12:13:49.836Z,44.79
2018-05-03T12:14:49.810Z,45.76
2018-05-03T12:15:49.789Z,45.83
2018-05-03T12:16:49.768Z,46.02
2018-05-03T12:17:49.750Z,46.02
2018-05-03T12:18:49.729Z,47.08
2018-05-03T12:19:49.704Z,46.53
2018-05-03T12:20:49.688Z,44.67
2018-05-03T12:21:49.665Z,42.69
2018-05-03T12:22:49.644Z,40.92
2018-05-03T12:23:49.624Z,39.66
2018-05-03T12:24:49.599Z,38.91
2018-05-03T12:25:49.578Z,38.60
2018-05-03T12:26:49.559Z,39.03
2018-05-03T12:27:49.536Z,40.11
2018-05-03T12:28:49.519Z,39.76
2018-05-03T12:29:49.501Z,39.36
2018-05-03T12:30:49.484Z,39.97
2018-05-03T12:31:49.473Z,37.96
2018-05-03T12:32:49.450Z,38.25
2018-05-03T12:33:49.421Z,38.97
2018-05-03T12:34:49.401Z,39.79
2018-05-03T12:35:49.384Z,41.68
2018-05-03T12:36:49.362Z,42.82
2018-05-03T12:37:49.349Z,43.88
2018-05-03T12:38:49.319Z,43.78
2018-05-03T12:39:49.311Z,43.88
2018-05-03T12:40:49.282Z,44.05
2018-05-03T12:41:49.267Z,44.53
2018-05-03T12:42:49.255Z,44.34
2018-05-03T12:43:49.233Z,44.74
2018-05-03T12:44:49.206Z,43.63
2018-05-03T12:45:49.193Z,42.96
2018-05-03T12:46:49.161Z,41.34
2018-05-03T12:47:49.153Z,40.70
2018-05-03T12:48:49.126Z,39.61
2018-05-03T12:49:49.110Z,36.44
2018-05-03T12:50:49.090Z,35.16
2018-05-03T12:51:49.100Z,35.47